Latest Coastal Weather Observations for Yarram Airport

IDV60701

Issued at 6:52 pm EDT Saturday 10 December 2022 (issued every 10 minutes, with the page automatically refreshed every 10 minutes)

About coastal observations | Map of coastal stations | Coastal observations for VIC | Marine services | Other Formats
Station Details ID: 085151 Name: YARRAM AIRPORT Lat: -38.56 Lon: 146.75 Height: 17.9 m
Data from the previous 72 hours. | See also: Recent months at Yarram Airport
Date/Time
EDT
Wind Sea
Height
m
Swell Vis
km
Cloud Weather Temp
°C
Press
MSL
hPa
Rain since
9am
mm
Dir  Spd
kts
Gust
kts
Height
m
Period
s
Dir
10/06:30pm ENE 12 17 - - - - - - - 17.2 1013.1 0.0
10/06:00pm E 12 18 - - - - - - - 17.7 1013.3 0.0
10/05:30pm E 14 21 - - - - - - - 17.8 1013.4 0.0
10/05:00pm ENE 13 20 - - - - - - - 18.2 1013.7 0.0
10/04:30pm E 15 22 - - - - - - - 18.6 1013.9 0.0
10/04:00pm E 15 21 - - - - - - - 18.7 1014.0 0.0
10/03:30pm E 15 22 - - - - - - - 18.7 1014.3 0.0
10/03:00pm E 16 23 - - - - - - - 18.9 1014.8 0.0
10/02:30pm E 15 24 - - - - - - - 19.3 1015.1 0.0
10/02:00pm E 15 20 - - - - - - - 19.3 1015.3 0.0
10/01:30pm E 15 21 - - - - - - - 18.9 1015.7 0.0
10/01:00pm E 14 21 - - - - - - - 19.5 1015.8 0.0
10/12:30pm E 13 21 - - - - - - - 19.5 1016.1 0.0
10/12:00pm E 13 19 - - - - - - - 19.3 1016.2 0.0
10/11:30am ENE 12 17 - - - - - - - 18.6 1016.5 0.0
10/11:00am ENE 11 15 - - - - - - - 18.7 1016.8 0.0
10/10:30am ENE 11 17 - - - - - - - 18.1 1017.2 0.0
10/10:00am ENE 10 17 - - - - - - - 17.1 1017.5 0.0
10/09:30am ENE 9 13 - - - - - - - 16.6 1017.8 0.0
10/09:00am ENE 9 13 - - - - - - - 15.8 1018.0 0.0
10/08:30am NE 8 12 - - - - - - - 14.3 1017.8 0.0
10/08:00am NE 6 8 - - - - - - - 12.0 1017.5 0.0
10/07:30am ENE 3 5 - - - - - - - 10.0 1017.4 0.0
10/07:00am CALM 0 0 - - - - - - - 6.5 1017.5 0.0
10/06:30am N 1 4 - - - - - - - 4.5 1017.4 0.0
10/06:00am CALM 0 0 - - - - - - - 3.1 1017.6 0.0
10/05:30am CALM 0 0 - - - - - - - 3.2 1017.5 0.0
10/05:00am CALM 0 0 - - - - - - - 3.3 1017.2 0.0
10/04:30am E 2 4 - - - - - - - 3.6 1017.0 0.0
10/04:00am CALM 0 4 - - - - - - - 3.7 1017.1 0.0
10/03:30am N 1 3 - - - - - - - 3.7 1017.1 0.0
10/03:00am CALM 0 0 - - - - - - - 4.2 1017.3 0.0
10/02:30am CALM 0 0 - - - - - - - 4.8 1017.5 0.0
10/02:00am CALM 0 0 - - - - - - - 4.5 1017.9 0.0
10/01:30am N 2 3 - - - - - - - 4.8 1018.1 0.0
10/01:00am NNE 4 5 - - - - - - - 5.2 1018.1 0.0
10/12:30am NNE 6 7 - - - - - - - 5.5 1018.3 0.0
10/12:00am NE 4 5 - - - - - - - 5.9 1018.2 0.0
 
Date/Time
EDT
Wind Sea
Height
m
Swell Vis
km
Cloud Weather Temp
°C
Press
MSL
hPa
Rain since
9am
mm
Dir  Spd
kts
Gust
kts
Height
m
Period
s
Dir
09/11:30pm N 5 5 - - - - - - - 6.3 1018.5 0.0
09/11:00pm N 5 6 - - - - - - - 6.4 1018.7 0.0
09/10:30pm NW 4 5 - - - - - - - 7.2 1018.8 0.0
09/10:00pm N 4 5 - - - - - - - 7.7 1018.7 0.0
09/09:30pm NE 4 5 - - - - - - - 8.7 1018.4 0.0
09/09:00pm ENE 4 5 - - - - - - - 10.0 1018.0 0.0
09/08:30pm SE 5 6 - - - - - - - 11.3 1017.9 0.0
09/08:00pm S 4 5 - - - - - - - 12.5 1017.9 0.0
09/07:30pm SSE 5 7 - - - - - - - 14.5 1017.4 0.0
09/07:00pm SSE 8 10 - - - - - - - 14.7 1017.3 0.0
09/06:30pm SSE 9 11 - - - - - - - 15.1 1017.1 0.0
09/06:00pm SSE 10 13 - - - - - - - 15.4 1017.1 0.0
09/05:30pm SSE 10 15 - - - - - - - 16.2 1017.2 0.0
09/05:00pm SSE 10 15 - - - - - - - 16.1 1017.2 0.0
09/04:30pm SSE 10 16 - - - - - - - 15.9 1017.4 0.0
09/04:00pm SSE 11 15 - - - - - - - 16.1 1017.5 0.0
09/03:30pm S 10 16 - - - - - - - 17.0 1017.7 0.0
09/03:00pm SSE 12 18 - - - - - - - 16.3 1017.5 0.0
09/02:30pm SSE 12 16 - - - - - - - 16.5 1017.4 0.0
09/02:00pm S 12 17 - - - - - - - 16.4 1017.4 0.0
09/01:30pm S 12 21 - - - - - - - 16.7 1017.7 0.0
09/01:00pm S 12 17 - - - - - - - 16.6 1017.6 0.0
09/12:30pm SSW 10 15 - - - - - - - 17.1 1017.6 0.0
09/12:00pm SSW 9 15 - - - - - - - 15.7 1017.7 0.0
09/11:30am S 12 16 - - - - - - - 13.9 1017.6 0.0
09/11:00am S 10 16 - - - - - - - 15.6 1017.5 0.0
09/10:30am S 10 16 - - - - - - - 15.3 1017.5 0.0
09/10:00am SSE 11 14 - - - - - - - 14.3 1017.3 0.0
09/09:30am SE 11 15 - - - - - - - 13.6 1017.1 0.0
09/09:00am W 5 8 - - - - - - - 12.7 1017.0 0.0
09/08:30am WSW 7 8 - - - - - - - 11.7 1016.6 0.0
09/08:00am W 7 9 - - - - - - - 11.1 1016.2 0.0
09/07:30am WNW 7 8 - - - - - - - 10.4 1015.9 0.0
09/07:00am W 7 8 - - - - - - - 9.1 1015.8 0.0
09/06:30am W 7 9 - - - - - - - 8.5 1015.5 0.0
09/06:00am W 7 9 - - - - - - - 7.2 1015.4 0.0
09/05:30am WNW 8 9 - - - - - - - 6.8 1015.4 0.0
09/05:00am WNW 8 9 - - - - - - - 6.5 1015.2 0.0
09/04:30am WNW 7 8 - - - - - - - 6.4 1015.2 0.0
09/04:00am WSW 7 8 - - - - - - - 7.5 1015.3 0.0
09/03:30am W 6 8 - - - - - - - 7.7 1015.2 0.0
09/03:00am W 7 9 - - - - - - - 8.5 1015.1 0.0
09/02:30am WNW 8 9 - - - - - - - 7.9 1015.2 0.0
09/02:00am W 9 11 - - - - - - - 8.9 1015.1 0.0
09/01:30am W 9 11 - - - - - - - 9.2 1015.2 0.0
09/01:00am WNW 8 11 - - - - - - - 9.8 1015.4 0.0
09/12:30am W 10 13 - - - - - - - 9.7 1015.4 0.0
09/12:00am W 11 13 - - - - - - - 9.7 1015.5 0.0
 
Date/Time
EDT
Wind Sea
Height
m
Swell Vis
km
Cloud Weather Temp
°C
Press
MSL
hPa
Rain since
9am
mm
Dir  Spd
kts
Gust
kts
Height
m
Period
s
Dir
08/11:30pm WNW 8 10 - - - - - - - 9.4 1015.6 0.0
08/11:00pm W 8 10 - - - - - - - 9.2 1015.4 0.0
08/10:30pm W 9 13 - - - - - - - 9.4 1015.3 0.0
08/10:00pm WSW 9 11 - - - - - - - 9.8 1015.2 0.0
08/09:30pm W 7 11 - - - - - - - 9.6 1015.1 0.0
08/09:00pm WSW 12 15 - - - - - - - 10.3 1014.8 0.0
08/08:30pm WSW 15 21 - - - - - - - 11.0 1014.4 0.0
08/08:00pm WSW 16 23 - - - - - - - 11.2 1014.1 0.0
08/07:30pm WSW 21 28 - - - - - - - 12.4 1013.7 0.0
08/07:00pm WSW 22 30 - - - - - - - 12.9 1013.4 0.0
08/06:30pm WSW 23 30 - - - - - - - 13.1 1013.0 0.0
08/06:00pm SW 21 29 - - - - - - - 14.2 1012.9 0.0
08/05:32pm WSW 23 33 - - - - - - - 15.0 1012.8 0.0
08/05:30pm WSW 23 32 - - - - - - - 14.2 1012.7 0.0
08/05:26pm WSW 22 32 - - - - - - - 13.2 1012.8 0.0
08/05:00pm WSW 24 32 - - - - - - - 13.9 1012.7 0.0
08/04:30pm WSW 26 34 - - - - - - - 14.6 1012.6 0.0
08/04:00pm W 21 31 - - - - - - - 14.3 1012.3 0.0
08/03:41pm WSW 22 34 - - - - - - - 13.7 1012.6 0.0
08/03:30pm WSW 22 28 - - - - - - - 14.8 1012.5 0.0
08/03:00pm SW 24 35 - - - - - - - 15.4 1012.3 0.0
08/02:38pm WSW 22 32 - - - - - - - 16.3 1012.2 0.0
08/02:30pm WSW 23 31 - - - - - - - 15.5 1012.2 0.0
08/02:00pm WSW 23 32 - - - - - - - 15.9 1012.2 0.0
08/01:37pm WSW 24 35 - - - - - - - 16.0 1012.1 0.0
08/01:30pm WSW 25 34 - - - - - - - 15.6 1012.0 0.0
08/01:06pm WSW 23 33 - - - - - - - 15.9 1011.7 0.0
08/01:00pm WSW 25 34 - - - - - - - 15.2 1011.6 0.0
08/12:42pm SW 25 35 - - - - - - - 15.7 1011.6 0.0
08/12:30pm WSW 25 34 - - - - - - - 15.0 1011.4 0.0
08/12:18pm WSW 24 34 - - - - - - - 14.3 1011.3 0.0
08/12:00pm WSW 25 33 - - - - - - - 15.2 1011.3 0.0
08/11:34am WSW 25 35 - - - - - - - 14.8 1011.1 0.0
08/11:30am SW 25 33 - - - - - - - 13.8 1011.1 0.0
08/11:07am SW 25 35 - - - - - - - 13.8 1010.8 0.0
08/11:00am SW 26 35 - - - - - - - 14.6 1010.8 0.0
08/10:49am SW 23 33 - - - - - - - 14.4 1010.6 0.0
08/10:30am WSW 24 32 - - - - - - - 13.7 1010.3 0.0
08/10:03am SW 21 31 - - - - - - - 12.6 1010.2 0.0
08/10:00am SW 20 28 - - - - - - - 13.5 1010.1 0.0
08/09:41am WSW 20 29 - - - - - - - 11.1 1010.3 0.0
08/09:30am WSW 22 34 - - - - - - - 11.8 1010.0 0.0
08/09:22am WSW 23 34 - - - - - - - 11.4 1009.8 0.0
08/09:00am SW 23 32 - - - - - - Recent precip. 12.6 1009.6 9.0
08/08:55am WSW 22 32 - - - - - - - 12.2 1009.5 9.0
08/08:38am WSW 15 29 - - - - - - - 11.6 1009.3 9.0
08/08:30am WSW 11 16 - - - - - - - 11.4 1009.2 9.0
08/08:00am WSW 12 19 - - - - - - - 9.3 1009.2 8.6
08/07:30am WSW 17 22 - - - - - - - 10.0 1008.4 8.2
08/07:14am W 16 29 - - - - - - - 9.4 1008.2 8.2
08/07:00am W 15 21 - - - - - - - 9.4 1008.0 8.2
08/06:30am W 12 16 - - - - - - - 7.9 1007.7 8.2
08/06:02am W 18 32 - - - - - - - 7.7 1007.8 8.2
08/06:00am W 17 32 - - - - - - Rain 7.8 1007.7 8.0
08/05:58am W 15 29 - - - - - - - 7.9 1007.5 8.0
08/05:30am W 13 17 - - - - - - - 7.9 1007.0 7.2
08/05:00am W 13 18 - - - - - - - 7.9 1006.9 7.2
08/04:30am W 13 19 - - - - - - - 7.8 1006.7 6.0
08/04:00am W 14 19 - - - - - - - 7.9 1006.6 4.8
08/03:30am W 13 18 - - - - - - - 8.2 1006.5 3.8
08/03:13am W 15 25 - - - - - - - 8.0 1006.4 3.8
08/03:00am W 15 23 - - - - - - Recent precip. 8.5 1006.3 3.8
08/02:41am W 15 25 - - - - - - - 8.7 1006.6 3.8
08/02:30am WSW 13 18 - - - - - - - 8.4 1006.5 3.8
08/02:00am W 14 19 - - - - - - - 8.0 1006.3 3.2
08/01:30am W 16 25 - - - - - - - 8.8 1006.6 3.2
08/01:00am W 13 17 - - - - - - - 8.9 1006.6 2.4
08/12:30am WSW 18 26 - - - - - - - 9.2 1006.6 2.4
08/12:14am W 15 26 - - - - - - - 10.0 1006.6 2.0
08/12:00am W 15 21 - - - - - - Recent precip. 9.9 1005.9 2.0
 
Date/Time
EDT
Wind Sea
Height
m
Swell Vis
km
Cloud Weather Temp
°C
Press
MSL
hPa
Rain since
9am
mm
Dir  Spd
kts
Gust
kts
Height
m
Period
s
Dir
07/11:30pm W 16 20 - - - - - - - 9.9 1005.8 2.0
07/11:00pm W 19 30 - - - - - - - 11.2 1005.8 1.2
07/10:30pm W 15 21 - - - - - - - 11.2 1004.9 1.2
07/10:00pm WSW 17 23 - - - - - - - 11.4 1005.3 0.8
07/09:30pm WSW 18 26 - - - - - - - 11.7 1004.6 0.2
07/09:06pm W 19 29 - - - - - - - 11.9 1004.1 0.2
07/09:00pm W 23 29 - - - - - - - 12.1 1004.0 0.0
07/08:50pm WSW 21 32 - - - - - - - 12.7 1003.7 0.0
07/08:30pm WSW 15 21 - - - - - - - 13.7 1003.3 0.0
07/08:19pm WSW 15 25 - - - - - - - 13.3 1003.2 0.0
07/08:00pm WSW 11 15 - - - - - - - 13.2 1003.1 0.0
07/07:30pm WSW 17 23 - - - - - - - 14.7 1003.0 0.0
07/07:00pm WSW 16 22 - - - - - - - 15.6 1002.7 0.0

Other formats

Comma delimited format used in spreadsheet applications
http://www.bom.gov.au/fwo/IDV60701/IDV60701.95890.axf

JavaScript Object Notation format (JSON) in row-major order
http://www.bom.gov.au/fwo/IDV60701/IDV60701.95890.json

Data quality

Most of these data are generated automatically and are frequently updated. Quality checks on data are not normally performed. It is possible for incorrect values to appear. Refer to information at About Latest Weather Observations and please check the disclaimer before using these data.